Time;durP1;ratioP1;P1;durP2;ratioP2;P2;SDS_P1;SDS_P2;PMS_P1;PMS_P2;Temp;Humidity;BMP_temperature;BMP_pressure;BME280_temperature;BME280_humidity;BME280_pressure;Samples;Min_cycle;Max_cycle;Signal;HPM_P1;HPM_P2
2023/05/18 00:01:54;;;;;;;;;;;;;;;19.79;68.76;100437.72;7400493;19;1520;-57
2023/05/18 00:04:24;;;;;;;;;;;;;;;19.77;68.87;100433.50;7400626;19;1295;-57
2023/05/18 00:06:55;;;;;;;;;;;;;;;19.80;68.76;100446.66;7400349;19;1854;-57
2023/05/18 00:09:24;;;;;;;;;;;;;;;19.78;68.51;100441.44;7400971;19;1145;-57
2023/05/18 00:11:52;;;;;;;;;;;;;;;19.83;68.40;100435.59;7399864;19;1223;-57
2023/05/18 00:14:21;;;;;;;;;;;;;;;19.82;68.47;100444.66;7400956;19;1641;-57
2023/05/18 00:16:49;;;;;;;;;;;;;;;19.83;68.32;100433.75;7401448;19;1183;-57
2023/05/18 00:19:20;;;;;;;;;;;;;;;19.84;68.20;100446.19;7400588;19;1871;-56
2023/05/18 00:21:49;;;;;;;;;;;;;;;19.83;68.44;100433.75;7399969;19;1400;-57
2023/05/18 00:24:18;;;;;;;;;;;;;;;19.81;68.33;100433.06;7400144;19;1633;-57
2023/05/18 00:26:47;;;;;;;;;;;;;;;19.81;68.39;100429.53;7400019;19;1860;-56
2023/05/18 00:29:16;;;;;;;;;;;;;;;19.81;68.17;100421.50;7400157;19;1236;-57
2023/05/18 00:31:44;;;;;;;;;;;;;;;19.80;68.26;100411.78;7398786;19;1316;-56
2023/05/18 00:34:13;;;;;;;;;;;;;;;19.83;68.06;100422.19;7399860;19;1251;-57
2023/05/18 00:36:44;;;;;;;;;;;;;;;19.76;68.42;100435.38;7400148;19;1225;-57
2023/05/18 00:39:12;;;;;;;;;;;;;;;19.82;68.23;100431.25;7399971;19;1327;-57
2023/05/18 00:41:41;;;;;;;;;;;;;;;19.79;68.19;100431.53;7399671;19;1452;-57
2023/05/18 00:44:09;;;;;;;;;;;;;;;19.70;68.26;100414.47;7399770;19;1103;-56
2023/05/18 00:46:37;;;;;;;;;;;;;;;19.71;68.27;100428.72;7398251;19;1565;-56
2023/05/18 00:49:06;;;;;;;;;;;;;;;19.73;68.16;100429.44;7397210;19;1836;-57
2023/05/18 00:51:34;;;;;;;;;;;;;;;19.71;68.40;100439.44;7397865;19;1554;-57
2023/05/18 00:54:07;;;;;;;;;;;;;;;19.73;68.17;100438.31;7399891;19;1236;-57
2023/05/18 00:56:35;;;;;;;;;;;;;;;19.73;68.25;100438.31;7399997;19;1494;-57
2023/05/18 00:59:04;;;;;;;;;;;;;;;19.77;68.29;100460.34;7400032;19;1566;-57
2023/05/18 01:01:34;;;;;;;;;;;;;;;19.77;68.32;100455.81;7398946;19;1515;-56
2023/05/18 01:04:03;;;;;;;;;;;;;;;19.78;68.09;100457.53;7398279;19;1853;-57
2023/05/18 01:06:34;;;;;;;;;;;;;;;19.70;68.07;100427.88;7399358;19;1232;-56
2023/05/18 01:09:05;;;;;;;;;;;;;;;19.68;68.20;100441.44;7396884;19;1851;-56
2023/05/18 01:11:38;;;;;;;;;;;;;;;19.73;68.08;100465.16;7399152;19;1550;-56
2023/05/18 01:14:11;;;;;;;;;;;;;;;19.76;68.13;100456.00;7399952;19;1507;-57
2023/05/18 01:16:43;;;;;;;;;;;;;;;19.74;68.07;100456.13;7398590;19;1494;-57
2023/05/18 01:19:21;;;;;;;;;;;;;;;19.75;68.11;100456.97;7399130;19;1586;-56
2023/05/18 01:21:58;;;;;;;;;;;;;;;19.74;68.31;100458.81;7398045;19;1562;-56
2023/05/18 01:24:32;;;;;;;;;;;;;;;19.67;68.47;100444.25;7397753;19;1289;-57
2023/05/18 01:27:07;;;;;;;;;;;;;;;19.76;68.29;100458.66;7397515;19;1364;-57
2023/05/18 01:29:36;;;;;;;;;;;;;;;19.79;67.88;100461.88;7398099;19;1264;-56
2023/05/18 01:32:08;;;;;;;;;;;;;;;19.77;67.98;100455.81;7397355;19;1593;-56
2023/05/18 01:34:36;;;;;;;;;;;;;;;19.71;68.34;100450.19;7397859;19;1590;-56
2023/05/18 01:37:05;;;;;;;;;;;;;;;19.67;68.33;100455.81;7397702;19;1688;-57
2023/05/18 01:39:33;;;;;;;;;;;;;;;19.70;68.08;100457.38;7397883;19;1205;-56
2023/05/18 01:42:08;;;;;;;;;;;;;;;19.79;68.05;100458.34;7396617;19;1447;-57
2023/05/18 01:44:41;;;;;;;;;;;;;;;19.48;69.05;100461.28;7395472;19;1587;-56
2023/05/18 01:47:12;;;;;;;;;;;;;;;20.07;67.80;100464.56;7394695;19;1244;-57
2023/05/18 01:49:47;;;;;;;;;;;;;;;20.58;66.51;100452.34;7396290;19;1467;-57
2023/05/18 01:52:18;;;;;;;;;;;;;;;20.97;65.28;100460.13;7395627;19;1841;-57
2023/05/18 01:54:47;;;;;;;;;;;;;;;20.68;66.21;100446.94;7394932;19;1179;-56
2023/05/18 01:57:20;;;;;;;;;;;;;;;20.61;66.43;100459.28;7395681;19;1480;-57
2023/05/18 01:59:49;;;;;;;;;;;;;;;20.54;67.16;100458.19;7395692;19;1223;-57
2023/05/18 02:02:18;;;;;;;;;;;;;;;20.79;66.58;100459.28;7395261;19;1524;-57
2023/05/18 02:04:46;;;;;;;;;;;;;;;20.78;66.48;100436.94;7397637;19;1557;-56
2023/05/18 02:07:14;;;;;;;;;;;;;;;20.85;66.25;100456.00;7396249;19;1384;-57
2023/05/18 02:09:43;;;;;;;;;;;;;;;21.08;65.80;100448.25;7395427;19;1937;-57
2023/05/18 02:12:11;;;;;;;;;;;;;;;21.29;65.22;100457.81;7396404;19;1590;-57
2023/05/18 02:14:42;;;;;;;;;;;;;;;21.30;65.15;100451.44;7395823;19;1158;-57
2023/05/18 02:17:10;;;;;;;;;;;;;;;21.27;65.21;100468.75;7396757;19;1312;-57
2023/05/18 02:19:39;;;;;;;;;;;;;;;21.26;65.22;100467.88;7398273;19;1117;-57
2023/05/18 02:22:07;;;;;;;;;;;;;;;21.27;65.31;100468.75;7397363;19;1111;-57
2023/05/18 02:24:35;;;;;;;;;;;;;;;21.30;65.00;100499.84;7397135;19;1494;-57
2023/05/18 02:27:04;;;;;;;;;;;;;;;21.30;65.03;100465.72;7396607;19;1488;-57
2023/05/18 02:29:32;;;;;;;;;;;;;;;21.37;65.04;100465.97;7394349;19;1850;-57
2023/05/18 02:32:03;;;;;;;;;;;;;;;21.34;64.88;100507.44;7395277;19;1578;-57
2023/05/18 02:34:34;;;;;;;;;;;;;;;21.38;65.18;100484.59;7397074;19;1174;-57
2023/05/18 02:37:03;;;;;;;;;;;;;;;21.38;64.98;100479.22;7395405;19;1591;-57
2023/05/18 02:39:32;;;;;;;;;;;;;;;21.37;65.07;100487.47;7395544;19;1235;-57
2023/05/18 02:42:01;;;;;;;;;;;;;;;21.41;65.01;100489.69;7395159;19;1563;-57
2023/05/18 02:44:29;;;;;;;;;;;;;;;21.42;65.06;100498.59;7395110;19;1377;-57
2023/05/18 02:46:58;;;;;;;;;;;;;;;21.43;64.83;100506.53;7394815;19;1243;-57
2023/05/18 02:49:28;;;;;;;;;;;;;;;21.43;64.98;100498.47;7395927;19;1862;-57
2023/05/18 02:51:57;;;;;;;;;;;;;;;21.43;65.12;100484.19;7395825;19;1581;-57
2023/05/18 02:54:25;;;;;;;;;;;;;;;21.46;64.85;100497.31;7395929;19;1542;-57
2023/05/18 02:56:55;;;;;;;;;;;;;;;21.46;64.98;100497.31;7395987;19;1299;-57
2023/05/18 02:59:23;;;;;;;;;;;;;;;21.49;65.00;100517.66;7395171;19;1616;-57
2023/05/18 03:01:52;;;;;;;;;;;;;;;21.47;64.99;100492.75;7395526;19;1212;-57
2023/05/18 03:04:20;;;;;;;;;;;;;;;21.49;64.87;100496.13;7395689;19;1546;-57
2023/05/18 03:06:51;;;;;;;;;;;;;;;21.50;64.95;100506.75;7396038;19;1476;-57
2023/05/18 03:09:20;;;;;;;;;;;;;;;21.51;64.80;100515.69;7394491;19;1853;-57
2023/05/18 03:11:48;;;;;;;;;;;;;;;21.54;64.85;100504.59;7395280;19;1547;-57
2023/05/18 03:14:16;;;;;;;;;;;;;;;21.51;64.64;100515.69;7395405;19;1539;-57
2023/05/18 03:16:44;;;;;;;;;;;;;;;21.55;64.81;100522.44;7395967;19;1906;-57
2023/05/18 03:19:14;;;;;;;;;;;;;;;21.53;64.79;100519.06;7394009;19;1498;-57
2023/05/18 03:21:42;;;;;;;;;;;;;;;21.57;64.79;100520.44;7394774;19;1253;-56
2023/05/18 03:24:15;;;;;;;;;;;;;;;21.57;64.60;100515.03;7394690;19;1598;-57
2023/05/18 03:26:43;;;;;;;;;;;;;;;21.57;64.73;100523.13;7399132;19;1577;-57
2023/05/18 03:29:12;;;;;;;;;;;;;;;21.57;64.48;100512.34;7399187;19;1868;-57
2023/05/18 03:31:41;;;;;;;;;;;;;;;21.55;64.69;100527.81;7402752;19;1636;-57
2023/05/18 03:34:09;;;;;;;;;;;;;;;21.62;64.65;100536.91;7402035;19;1285;-57
2023/05/18 03:36:37;;;;;;;;;;;;;;;21.60;64.78;100520.09;7401796;19;1617;-57
2023/05/18 03:39:06;;;;;;;;;;;;;;;21.65;64.53;100533.94;7402791;19;1499;-57
2023/05/18 03:41:37;;;;;;;;;;;;;;;21.65;64.66;100533.94;7403173;19;1256;-57
2023/05/18 03:44:05;;;;;;;;;;;;;;;21.71;64.28;100549.44;7401903;19;1294;-57
2023/05/18 03:46:34;;;;;;;;;;;;;;;21.71;64.32;100541.38;7400776;19;1495;-57
2023/05/18 03:49:03;;;;;;;;;;;;;;;21.70;64.45;100525.38;7400953;19;1852;-57
2023/05/18 03:51:32;;;;;;;;;;;;;;;21.73;64.12;100539.34;7402095;19;1546;-57
2023/05/18 03:54:00;;;;;;;;;;;;;;;21.74;64.18;100543.72;7401828;19;1479;-57
2023/05/18 03:56:30;;;;;;;;;;;;;;;21.72;64.28;100543.03;7401684;19;1597;-56
2023/05/18 03:59:00;;;;;;;;;;;;;;;21.76;64.08;100548.94;7400469;19;1471;-57
2023/05/18 04:01:29;;;;;;;;;;;;;;;21.47;64.98;100550.13;7400191;19;1266;-57
2023/05/18 04:03:58;;;;;;;;;;;;;;;21.22;65.76;100546.34;7400282;19;1539;-57
2023/05/18 04:06:26;;;;;;;;;;;;;;;21.21;65.51;100568.88;7400858;19;1837;-57
2023/05/18 04:08:55;;;;;;;;;;;;;;;21.22;65.39;100555.25;7398402;19;1856;-57
2023/05/18 04:11:23;;;;;;;;;;;;;;;21.17;65.72;100559.41;7398006;19;1396;-57
2023/05/18 04:13:52;;;;;;;;;;;;;;;20.88;66.25;100573.09;7399847;19;1223;-57
2023/05/18 04:16:23;;;;;;;;;;;;;;;20.84;66.61;100568.00;7397535;19;1373;-56
2023/05/18 04:18:51;;;;;;;;;;;;;;;20.82;66.61;100575.38;7392606;19;1714;-57
2023/05/18 04:21:20;;;;;;;;;;;;;;;20.83;66.65;100592.34;7396763;19;1486;-57
2023/05/18 04:23:48;;;;;;;;;;;;;;;20.83;66.51;100595.03;7399854;19;1420;-57
2023/05/18 04:26:19;;;;;;;;;;;;;;;20.54;67.23;100587.16;7399032;19;1494;-57
2023/05/18 04:28:48;;;;;;;;;;;;;;;20.65;67.16;100586.94;7400757;19;1872;-57
2023/05/18 04:31:17;;;;;;;;;;;;;;;20.35;68.77;100598.81;7398748;19;1481;-57
2023/05/18 04:33:50;;;;;;;;;;;;;;;20.34;68.71;100602.50;7394432;19;1781;-56
2023/05/18 04:36:19;;;;;;;;;;;;;;;20.27;69.11;100605.78;7398980;19;1516;-57
2023/05/18 04:38:49;;;;;;;;;;;;;;;20.28;69.28;100595.88;7396228;19;1471;-57
2023/05/18 04:41:19;;;;;;;;;;;;;;;20.36;68.25;100612.09;7398342;19;1193;-57
2023/05/18 04:43:49;;;;;;;;;;;;;;;20.26;66.08;100617.50;7395666;19;1491;-56
2023/05/18 04:46:17;;;;;;;;;;;;;;;20.32;67.85;100626.81;7393285;19;1540;-56
2023/05/18 04:48:48;;;;;;;;;;;;;;;20.32;65.27;100612.56;7398588;19;1858;-57
2023/05/18 04:51:20;;;;;;;;;;;;;;;20.30;64.70;100627.97;7395722;19;1272;-57
2023/05/18 04:53:48;;;;;;;;;;;;;;;20.05;65.37;100614.19;7395450;19;1474;-56
2023/05/18 04:56:17;;;;;;;;;;;;;;;19.94;64.63;100611.69;7398896;19;1350;-58
2023/05/18 04:58:46;;;;;;;;;;;;;;;19.91;64.77;100630.75;7399076;19;1535;-58
2023/05/18 05:01:15;;;;;;;;;;;;;;;19.85;64.76;100616.91;7394533;19;1195;-56
2023/05/18 05:03:44;;;;;;;;;;;;;;;19.92;65.38;100613.69;7396163;19;1862;-58
2023/05/18 05:06:15;;;;;;;;;;;;;;;19.90;65.39;100618.34;7397757;19;1259;-58
2023/05/18 05:08:43;;;;;;;;;;;;;;;20.10;65.48;100606.56;7394850;19;1846;-61
2023/05/18 05:11:12;;;;;;;;;;;;;;;20.26;66.19;100614.00;7397836;19;1012;-61
2023/05/18 05:13:40;;;;;;;;;;;;;;;20.31;66.27;100616.22;7398016;19;1848;-61
2023/05/18 05:16:08;;;;;;;;;;;;;;;20.30;66.04;100622.59;7396596;19;1609;-62
2023/05/18 05:18:37;;;;;;;;;;;;;;;20.17;66.86;100625.59;7393734;19;1504;-58
2023/05/18 05:21:05;;;;;;;;;;;;;;;20.23;66.80;100630.38;7390907;19;1493;-60
2023/05/18 05:23:36;;;;;;;;;;;;;;;20.28;66.62;100630.81;7394681;19;1562;-58
2023/05/18 05:26:04;;;;;;;;;;;;;;;20.33;66.17;100649.16;7392241;19;2070;-58
2023/05/18 05:28:33;;;;;;;;;;;;;;;20.39;64.65;100632.44;7393069;19;1845;-58
2023/05/18 05:31:01;;;;;;;;;;;;;;;20.10;66.57;100644.16;7394614;19;1391;-57
2023/05/18 05:33:30;;;;;;;;;;;;;;;20.06;66.30;100648.09;7393742;19;1450;-57
2023/05/18 05:35:58;;;;;;;;;;;;;;;20.05;66.53;100646.41;7391932;19;1509;-57
2023/05/18 05:38:26;;;;;;;;;;;;;;;20.29;66.07;100647.75;7393841;19;1496;-56
2023/05/18 05:40:57;;;;;;;;;;;;;;;20.27;66.01;100655.94;7395561;19;1022;-57
2023/05/18 05:43:25;;;;;;;;;;;;;;;20.20;66.19;100677.16;7394192;19;1587;-57
2023/05/18 05:45:54;;;;;;;;;;;;;;;20.11;66.66;100672.66;7391919;19;1349;-57
2023/05/18 05:48:22;;;;;;;;;;;;;;;20.11;64.99;100667.28;7390990;19;1498;-56
2023/05/18 05:50:50;;;;;;;;;;;;;;;19.99;65.44;100681.88;7389654;19;1845;-57
2023/05/18 05:53:19;;;;;;;;;;;;;;;19.79;65.34;100684.59;7390607;19;1429;-56
2023/05/18 05:55:48;;;;;;;;;;;;;;;19.63;64.99;100665.50;7395158;19;1671;-56
2023/05/18 05:58:19;;;;;;;;;;;;;;;19.52;65.21;100676.38;7397227;19;1869;-57
2023/05/18 06:00:48;;;;;;;;;;;;;;;19.45;65.59;100666.22;7396118;19;1197;-57
2023/05/18 06:03:16;;;;;;;;;;;;;;;19.50;65.85;100679.22;7397791;19;1256;-57
2023/05/18 06:05:44;;;;;;;;;;;;;;;19.59;66.00;100664.09;7396360;19;1957;-57
2023/05/18 06:08:14;;;;;;;;;;;;;;;19.59;65.94;100682.88;7396020;19;1926;-56
2023/05/18 06:10:42;;;;;;;;;;;;;;;19.55;66.11;100681.47;7394162;19;1840;-57
2023/05/18 06:13:11;;;;;;;;;;;;;;;19.50;66.60;100694.44;7396912;19;1598;-56
2023/05/18 06:15:41;;;;;;;;;;;;;;;19.48;66.61;100665.94;7396415;19;1531;-57
2023/05/18 06:18:10;;;;;;;;;;;;;;;19.51;66.54;100677.38;7394514;19;1861;-56
2023/05/18 06:20:38;;;;;;;;;;;;;;;19.53;66.57;100680.75;7390999;19;1789;-56
2023/05/18 06:23:06;;;;;;;;;;;;;;;19.71;66.48;100673.72;7386940;19;1443;-57
2023/05/18 06:25:35;;;;;;;;;;;;;;;19.57;66.42;100674.13;7392248;19;1599;-57
2023/05/18 06:28:03;;;;;;;;;;;;;;;19.86;66.19;100671.47;7386397;19;1262;-58
2023/05/18 06:30:31;;;;;;;;;;;;;;;19.81;65.86;100669.19;7387299;19;1888;-58
2023/05/18 06:33:03;;;;;;;;;;;;;;;19.68;66.29;100692.78;7395267;19;1863;-57
2023/05/18 06:35:31;;;;;;;;;;;;;;;19.61;66.56;100676.38;7394519;19;1836;-57
2023/05/18 06:37:59;;;;;;;;;;;;;;;19.51;66.95;100685.41;7395918;19;1764;-57
2023/05/18 06:40:28;;;;;;;;;;;;;;;19.42;67.29;100674.56;7393839;19;1379;-57
2023/05/18 06:42:56;;;;;;;;;;;;;;;19.38;67.44;100683.88;7394285;19;1649;-57
2023/05/18 06:45:24;;;;;;;;;;;;;;;19.34;67.24;100695.00;7392042;19;1599;-58
2023/05/18 06:47:52;;;;;;;;;;;;;;;19.38;67.42;100693.75;7393694;19;1775;-56
2023/05/18 06:50:23;;;;;;;;;;;;;;;19.41;67.49;100688.94;7394117;19;1869;-58
2023/05/18 06:52:52;;;;;;;;;;;;;;;19.65;66.71;100691.19;7394155;19;1617;-57
2023/05/18 06:55:20;;;;;;;;;;;;;;;19.63;67.02;100690.50;7394312;19;1647;-57
2023/05/18 06:57:48;;;;;;;;;;;;;;;19.56;66.89;100704.63;7394638;19;1542;-57
2023/05/18 07:00:17;;;;;;;;;;;;;;;19.56;66.84;100688.53;7397407;19;1110;-57
2023/05/18 07:02:46;;;;;;;;;;;;;;;19.71;65.69;100697.88;7402227;19;1129;-57
2023/05/18 07:05:15;;;;;;;;;;;;;;;19.61;67.28;100707.72;7402111;19;1574;-57
2023/05/18 07:07:46;;;;;;;;;;;;;;;19.61;67.38;100702.34;7402483;19;1402;-58
2023/05/18 07:10:14;;;;;;;;;;;;;;;19.64;67.61;100710.13;7398985;19;1838;-57
2023/05/18 07:12:43;;;;;;;;;;;;;;;19.57;67.85;100712.50;7401815;19;1391;-57
2023/05/18 07:15:12;;;;;;;;;;;;;;;19.53;67.60;100711.09;7402652;19;1714;-59
2023/05/18 07:17:41;;;;;;;;;;;;;;;19.55;67.61;100713.66;7403192;19;1725;-59
2023/05/18 07:20:10;;;;;;;;;;;;;;;19.60;67.53;100706.88;7402907;19;1830;-58
2023/05/18 07:22:39;;;;;;;;;;;;;;;19.66;67.53;100705.47;7403385;19;1001;-59
2023/05/18 07:25:10;;;;;;;;;;;;;;;19.65;67.89;100709.13;7402200;19;1930;-57
2023/05/18 07:27:38;;;;;;;;;;;;;;;19.58;67.84;100703.50;7402163;19;1519;-57
2023/05/18 07:30:08;;;;;;;;;;;;;;;19.76;67.02;100716.25;7400001;19;1838;-58
2023/05/18 07:32:36;;;;;;;;;;;;;;;19.89;66.40;100713.25;7399306;19;1873;-57
2023/05/18 07:35:05;;;;;;;;;;;;;;;19.64;67.47;100718.19;7400809;19;1627;-57
2023/05/18 07:37:33;;;;;;;;;;;;;;;19.54;67.70;100728.06;7401087;19;1649;-57
2023/05/18 07:40:03;;;;;;;;;;;;;;;19.60;67.89;100730.19;7400807;19;1221;-58
2023/05/18 07:42:34;;;;;;;;;;;;;;;19.50;68.21;100729.31;7401813;19;1545;-57
2023/05/18 07:45:02;;;;;;;;;;;;;;;19.48;68.64;100729.47;7398493;19;1554;-56
2023/05/18 07:47:30;;;;;;;;;;;;;;;19.34;68.82;100736.09;7399681;19;1486;-57
2023/05/18 07:49:59;;;;;;;;;;;;;;;19.37;68.94;100732.25;7396281;19;1849;-57
2023/05/18 07:52:27;;;;;;;;;;;;;;;19.33;68.76;100742.41;7396236;19;1724;-57
2023/05/18 07:54:56;;;;;;;;;;;;;;;19.32;68.73;100750.59;7401363;19;1251;-57
2023/05/18 07:57:25;;;;;;;;;;;;;;;19.33;68.79;100742.41;7402077;19;1898;-57
2023/05/18 07:59:56;;;;;;;;;;;;;;;19.43;68.50;100748.63;7400181;19;1892;-57
2023/05/18 08:02:24;;;;;;;;;;;;;;;19.41;68.71;100755.13;7400579;19;1855;-57
2023/05/18 08:04:52;;;;;;;;;;;;;;;19.42;68.84;100757.69;7400148;19;1584;-57
2023/05/18 08:07:20;;;;;;;;;;;;;;;19.42;68.84;100757.69;7399605;19;1687;-57
2023/05/18 08:09:49;;;;;;;;;;;;;;;19.39;68.35;100755.25;7399086;19;1843;-57
2023/05/18 08:12:17;;;;;;;;;;;;;;;19.43;68.44;100759.38;7396951;19;1479;-57
2023/05/18 08:14:45;;;;;;;;;;;;;;;19.60;68.10;100759.69;7398570;19;1546;-57
2023/05/18 08:17:17;;;;;;;;;;;;;;;19.78;67.58;100774.13;7399490;19;1677;-57
2023/05/18 08:19:46;;;;;;;;;;;;;;;20.16;66.28;100750.09;7400248;19;1859;-57
2023/05/18 08:22:14;;;;;;;;;;;;;;;19.99;66.60;100752.50;7399464;19;1126;-57
2023/05/18 08:24:43;;;;;;;;;;;;;;;20.08;66.63;100756.19;7397857;19;1884;-57
2023/05/18 08:27:12;;;;;;;;;;;;;;;20.18;66.45;100748.97;7396260;19;1213;-57
2023/05/18 08:29:40;;;;;;;;;;;;;;;20.25;66.27;100760.84;7396422;19;1848;-57
2023/05/18 08:32:08;;;;;;;;;;;;;;;19.98;66.95;100760.72;7400482;19;1338;-57
2023/05/18 08:34:40;;;;;;;;;;;;;;;19.92;67.28;100763.97;7398914;19;1415;-57
2023/05/18 08:37:08;;;;;;;;;;;;;;;20.04;66.60;100752.09;7398843;19;1536;-57
2023/05/18 08:39:37;;;;;;;;;;;;;;;20.16;66.53;100756.31;7399857;19;1550;-57
2023/05/18 08:42:09;;;;;;;;;;;;;;;20.12;66.52;100762.97;7397840;19;1216;-57
2023/05/18 08:44:40;;;;;;;;;;;;;;;20.01;67.33;100784.59;7399614;19;1836;-57
2023/05/18 08:47:10;;;;;;;;;;;;;;;19.98;67.31;100784.88;7396515;19;1348;-57
2023/05/18 08:49:43;;;;;;;;;;;;;;;19.98;67.65;100776.81;7398058;19;1850;-57
2023/05/18 08:52:12;;;;;;;;;;;;;;;20.02;67.62;100794.34;7396885;19;1247;-57
2023/05/18 08:54:41;;;;;;;;;;;;;;;20.04;67.02;100789.69;7394031;19;1452;-57
2023/05/18 08:57:10;;;;;;;;;;;;;;;20.02;67.19;100779.06;7393889;19;1339;-57
2023/05/18 08:59:42;;;;;;;;;;;;;;;20.05;67.43;100789.53;7394467;19;1180;-57
2023/05/18 09:02:10;;;;;;;;;;;;;;;20.04;67.31;100779.78;7396554;19;1529;-57
2023/05/18 09:04:43;;;;;;;;;;;;;;;20.06;67.35;100782.34;7391656;19;1201;-57
2023/05/18 09:07:12;;;;;;;;;;;;;;;20.02;67.15;100780.91;7395748;19;1314;-57
2023/05/18 09:09:42;;;;;;;;;;;;;;;20.24;66.52;100779.78;7396698;19;1866;-57
2023/05/18 09:12:13;;;;;;;;;;;;;;;20.30;66.65;100783.72;7394582;19;1256;-57
2023/05/18 09:14:42;;;;;;;;;;;;;;;20.20;67.04;100795.31;7391940;19;1499;-58
2023/05/18 09:17:11;;;;;;;;;;;;;;;20.09;66.82;100787.41;7394223;19;1709;-57
2023/05/18 09:19:42;;;;;;;;;;;;;;;20.03;67.16;100782.59;7394678;19;1019;-57
2023/05/18 09:22:10;;;;;;;;;;;;;;;19.86;67.94;100787.69;7395424;19;1038;-58
2023/05/18 09:24:39;;;;;;;;;;;;;;;20.02;67.30;100794.34;7391648;19;1813;-56
2023/05/18 09:27:07;;;;;;;;;;;;;;;19.89;67.58;100780.34;7395411;19;1837;-57
2023/05/18 09:29:36;;;;;;;;;;;;;;;19.93;67.73;100782.59;7397999;19;1828;-56
2023/05/18 09:32:05;;;;;;;;;;;;;;;19.95;67.64;100779.78;7395974;19;1857;-57
2023/05/18 09:34:44;;;;;;;;;;;;;;;20.04;67.29;100787.84;7397935;19;1777;-57
2023/05/18 09:37:12;;;;;;;;;;;;;;;19.95;67.53;100775.25;7396854;19;1745;-58
2023/05/18 09:39:41;;;;;;;;;;;;;;;19.71;68.47;100781.03;7396591;19;1817;-57
2023/05/18 09:42:09;;;;;;;;;;;;;;;19.68;68.62;100778.63;7396543;19;1714;-57
2023/05/18 09:44:37;;;;;;;;;;;;;;;19.89;67.83;100777.66;7396792;19;1312;-57
2023/05/18 09:47:09;;;;;;;;;;;;;;;20.08;67.25;100749.97;7394510;19;1285;-56
2023/05/18 09:49:38;;;;;;;;;;;;;;;20.01;67.06;100768.47;7396702;19;985;-57
2023/05/18 09:52:11;;;;;;;;;;;;;;;20.03;67.09;100766.50;7395129;19;1846;-57
2023/05/18 09:54:40;;;;;;;;;;;;;;;20.18;66.58;100765.06;7396151;19;1834;-57
2023/05/18 09:57:08;;;;;;;;;;;;;;;20.09;66.46;100755.19;7395617;19;1511;-57
2023/05/18 09:59:38;;;;;;;;;;;;;;;19.89;67.47;100774.97;7394978;19;1504;-57
2023/05/18 10:02:07;;;;;;;;;;;;;;;19.83;67.39;100761.13;7394585;19;1286;-57
2023/05/18 10:04:39;;;;;;;;;;;;;;;19.80;66.55;100744.47;7393995;19;1943;-57
2023/05/18 10:07:16;;;;;;;;;;;;;;;20.19;65.98;100755.19;7395232;19;1479;-57
2023/05/18 10:09:47;;;;;;;;;;;;;;;20.02;66.71;100756.75;7395913;19;1196;-57
2023/05/18 10:12:15;;;;;;;;;;;;;;;19.92;67.38;100761.28;7394201;19;1826;-57
2023/05/18 10:14:44;;;;;;;;;;;;;;;19.70;66.47;100760.53;7393080;19;1874;-57
2023/05/18 10:17:13;;;;;;;;;;;;;;;19.94;67.14;100756.63;7390512;19;1356;-56
2023/05/18 10:19:42;;;;;;;;;;;;;;;20.06;66.65;100756.31;7394841;19;1194;-56
2023/05/18 10:22:10;;;;;;;;;;;;;;;20.05;66.68;100751.97;7392553;19;1035;-56
2023/05/18 10:24:44;;;;;;;;;;;;;;;20.04;66.75;100758.31;7391925;19;1258;-57
2023/05/18 10:27:15;;;;;;;;;;;;;;;20.12;66.75;100779.06;7391669;19;1860;-57
2023/05/18 10:29:45;;;;;;;;;;;;;;;20.04;67.15;100760.16;7393072;19;1543;-56
2023/05/18 10:32:14;;;;;;;;;;;;;;;20.04;67.19;100769.03;7390640;19;1825;-56
2023/05/18 10:34:43;;;;;;;;;;;;;;;20.07;67.15;100754.47;7391374;19;1758;-56
2023/05/18 10:37:12;;;;;;;;;;;;;;;20.03;67.59;100723.53;7391518;19;1841;-57
2023/05/18 10:39:44;;;;;;;;;;;;;;;20.18;67.11;100748.97;7392604;19;1686;-57
2023/05/18 10:42:13;;;;;;;;;;;;;;;20.12;67.09;100743.34;7392542;19;1720;-57
2023/05/18 10:44:42;;;;;;;;;;;;;;;20.12;67.40;100744.16;7389545;19;1851;-56
2023/05/18 10:47:13;;;;;;;;;;;;;;;19.98;67.85;100731.19;7391070;19;1670;-56
2023/05/18 10:49:44;;;;;;;;;;;;;;;19.96;67.90;100738.53;7392688;19;1670;-56
2023/05/18 10:52:13;;;;;;;;;;;;;;;20.01;67.42;100725.53;7392988;19;1841;-56
2023/05/18 10:54:44;;;;;;;;;;;;;;;19.89;67.80;100718.63;7396025;19;1537;-57
2023/05/18 10:57:14;;;;;;;;;;;;;;;19.87;68.20;100732.19;7394233;19;1884;-57
2023/05/18 10:59:44;;;;;;;;;;;;;;;19.87;67.99;100740.22;7390135;19;1461;-56
2023/05/18 11:02:14;;;;;;;;;;;;;;;19.91;67.83;100722.00;7393994;19;1829;-56
2023/05/18 11:04:42;;;;;;;;;;;;;;;20.03;67.31;100724.41;7392978;19;1373;-56
2023/05/18 11:07:12;;;;;;;;;;;;;;;20.11;67.25;100723.66;7394481;19;1280;-56
2023/05/18 11:09:45;;;;;;;;;;;;;;;20.14;67.22;100722.56;7392521;19;1299;-56
2023/05/18 11:12:15;;;;;;;;;;;;;;;20.18;66.88;100732.84;7392957;19;1843;-56
2023/05/18 11:14:49;;;;;;;;;;;;;;;20.17;67.15;100733.84;7395699;19;1748;-57
2023/05/18 11:17:19;;;;;;;;;;;;;;;20.17;67.05;100736.53;7393896;19;1271;-57
2023/05/18 11:20:03;;;;;;;;;;;;;;;20.10;67.89;100735.41;7394367;19;1228;-57
2023/05/18 11:22:41;;;;;;;;;;;;;;;20.07;67.87;100738.38;7395369;19;1531;-57
2023/05/18 11:25:32;;;;;;;;;;;;;;;20.26;67.31;100732.97;7395547;19;1355;-56
2023/05/18 11:28:03;;;;;;;;;;;;;;;20.08;67.84;100721.28;7392752;19;2367;-56
2023/05/18 11:30:32;;;;;;;;;;;;;;;19.96;68.70;100722.44;7394514;19;1863;-56
2023/05/18 11:33:10;;;;;;;;;;;;;;;20.10;68.46;100730.03;7396330;19;1111;-57
2023/05/18 11:35:53;;;;;;;;;;;;;;;20.06;68.29;100721.44;7394869;19;1966;-57
2023/05/18 11:38:21;;;;;;;;;;;;;;;20.40;67.14;100695.91;7395655;19;1625;-56
2023/05/18 11:40:52;;;;;;;;;;;;;;;20.26;67.19;100722.25;7394846;19;1229;-56
2023/05/18 11:43:26;;;;;;;;;;;;;;;20.03;68.27;100727.09;7393021;19;1502;-57
2023/05/18 11:45:55;;;;;;;;;;;;;;;20.02;68.36;100740.66;7392175;19;1387;-56
2023/05/18 11:48:24;;;;;;;;;;;;;;;19.94;68.43;100714.53;7402198;19;1562;-57
2023/05/18 11:50:54;;;;;;;;;;;;;;;20.03;68.12;100728.91;7400933;19;1833;-57
2023/05/18 11:53:24;;;;;;;;;;;;;;;19.97;68.40;100737.53;7401900;19;1766;-56
2023/05/18 11:55:56;;;;;;;;;;;;;;;20.16;67.54;100725.94;7400839;19;1835;-57
2023/05/18 11:58:25;;;;;;;;;;;;;;;20.24;66.99;100723.38;7403906;19;1023;-56
2023/05/18 12:00:54;;;;;;;;;;;;;;;19.99;67.66;100727.50;7400410;19;1946;-56
2023/05/18 12:03:25;;;;;;;;;;;;;;;19.90;68.05;100723.00;7400634;19;1415;-58
2023/05/18 12:05:53;;;;;;;;;;;;;;;20.11;67.26;100726.34;7402890;19;937;-56
2023/05/18 12:08:28;;;;;;;;;;;;;;;19.97;67.65;100721.44;7402244;19;1943;-57
2023/05/18 12:11:00;;;;;;;;;;;;;;;19.94;67.97;100733.31;7401701;19;1849;-57
2023/05/18 12:13:29;;;;;;;;;;;;;;;20.01;67.27;100717.47;7401685;19;1628;-57
2023/05/18 12:15:58;;;;;;;;;;;;;;;20.26;65.85;100724.09;7399680;19;1580;-56
2023/05/18 12:18:29;;;;;;;;;;;;;;;20.21;65.57;100732.59;7400229;19;1725;-57
2023/05/18 12:20:57;;;;;;;;;;;;;;;20.39;64.72;100721.06;7400762;19;1216;-57
2023/05/18 12:23:36;;;;;;;;;;;;;;;20.22;65.21;100731.56;7400164;19;1599;-57
2023/05/18 12:26:08;;;;;;;;;;;;;;;20.04;66.33;100725.25;7400915;19;1496;-56
2023/05/18 12:28:36;;;;;;;;;;;;;;;20.24;64.73;100718.84;7400676;19;1498;-57
2023/05/18 12:31:07;;;;;;;;;;;;;;;20.25;65.01;100727.75;7401811;19;1870;-56
2023/05/18 12:33:35;;;;;;;;;;;;;;;20.05;65.83;100724.25;7400407;19;1299;-57
2023/05/18 12:36:03;;;;;;;;;;;;;;;19.96;66.53;100711.72;7400796;19;1579;-56
2023/05/18 12:38:32;;;;;;;;;;;;;;;20.03;65.55;100712.81;7401734;19;1173;-57
2023/05/18 12:41:00;;;;;;;;;;;;;;;19.91;67.24;100713.97;7400430;19;1881;-56
2023/05/18 12:43:34;;;;;;;;;;;;;;;19.75;67.14;100698.44;7400713;19;1958;-57
2023/05/18 12:46:03;;;;;;;;;;;;;;;19.74;67.04;100696.75;7397786;19;1509;-57
2023/05/18 12:48:37;;;;;;;;;;;;;;;19.70;67.04;100706.88;7400051;19;1838;-57
2023/05/18 12:51:06;;;;;;;;;;;;;;;19.66;67.12;100695.59;7399335;19;1855;-57
2023/05/18 12:53:42;;;;;;;;;;;;;;;19.75;67.09;100699.28;7399634;19;1435;-56
2023/05/18 12:56:11;;;;;;;;;;;;;;;19.73;66.93;100701.25;7398523;19;1415;-57
2023/05/18 12:58:43;;;;;;;;;;;;;;;19.76;66.77;100718.94;7399794;19;1706;-57
2023/05/18 13:01:12;;;;;;;;;;;;;;;19.73;66.96;100717.34;7400324;19;1745;-56